sensor_id;sensor_type;location;lat;lon;timestamp;temperature;humidity
26575;DHT22;67165;50.256;10.978;2023-07-13T00:01:31;21.40;98.00
26575;DHT22;67165;50.256;10.978;2023-07-13T00:03:57;21.40;98.00
26575;DHT22;67165;50.256;10.978;2023-07-13T00:06:22;21.30;98.00
26575;DHT22;67165;50.256;10.978;2023-07-13T00:08:48;21.30;98.00
26575;DHT22;67165;50.256;10.978;2023-07-13T00:11:15;21.20;98.00
26575;DHT22;67165;50.256;10.978;2023-07-13T00:13:42;21.20;98.00
26575;DHT22;67165;50.256;10.978;2023-07-13T00:16:09;21.10;98.00
26575;DHT22;67165;50.256;10.978;2023-07-13T00:18:35;21.20;98.00
26575;DHT22;67165;50.256;10.978;2023-07-13T00:21:01;21.20;98.00
26575;DHT22;67165;50.256;10.978;2023-07-13T00:23:32;21.10;98.00
26575;DHT22;67165;50.256;10.978;2023-07-13T00:26:00;21.10;98.00
26575;DHT22;67165;50.256;10.978;2023-07-13T00:28:25;21.10;98.00
26575;DHT22;67165;50.256;10.978;2023-07-13T00:30:51;21.00;98.00
26575;DHT22;67165;50.256;10.978;2023-07-13T00:33:17;21.00;98.00
26575;DHT22;67165;50.256;10.978;2023-07-13T00:35:42;20.90;98.00
26575;DHT22;67165;50.256;10.978;2023-07-13T00:38:09;20.80;98.00
26575;DHT22;67165;50.256;10.978;2023-07-13T00:40:35;20.80;98.00
26575;DHT22;67165;50.256;10.978;2023-07-13T00:43:01;20.70;98.00
26575;DHT22;67165;50.256;10.978;2023-07-13T00:47:52;20.60;98.00
26575;DHT22;67165;50.256;10.978;2023-07-13T00:50:19;20.50;98.00
26575;DHT22;67165;50.256;10.978;2023-07-13T00:52:46;20.40;98.00
26575;DHT22;67165;50.256;10.978;2023-07-13T00:55:14;20.30;98.00
26575;DHT22;67165;50.256;10.978;2023-07-13T00:57:41;20.30;98.00
26575;DHT22;67165;50.256;10.978;2023-07-13T01:00:07;20.20;98.00
26575;DHT22;67165;50.256;10.978;2023-07-13T01:02:36;20.20;98.00
26575;DHT22;67165;50.256;10.978;2023-07-13T01:05:19;20.20;98.00
26575;DHT22;67165;50.256;10.978;2023-07-13T01:07:45;20.10;98.00
26575;DHT22;67165;50.256;10.978;2023-07-13T01:10:12;20.00;98.00
26575;DHT22;67165;50.256;10.978;2023-07-13T01:12:38;20.00;98.00
26575;DHT22;67165;50.256;10.978;2023-07-13T01:15:05;20.00;98.00
26575;DHT22;67165;50.256;10.978;2023-07-13T01:17:33;19.90;98.00
26575;DHT22;67165;50.256;10.978;2023-07-13T01:19:59;19.80;98.00
26575;DHT22;67165;50.256;10.978;2023-07-13T01:22:26;19.80;98.00
26575;DHT22;67165;50.256;10.978;2023-07-13T01:24:53;19.90;98.00
26575;DHT22;67165;50.256;10.978;2023-07-13T01:27:24;19.80;98.00
26575;DHT22;67165;50.256;10.978;2023-07-13T01:29:51;19.80;98.00
26575;DHT22;67165;50.256;10.978;2023-07-13T01:32:23;19.80;98.00
26575;DHT22;67165;50.256;10.978;2023-07-13T01:34:53;19.80;98.00
26575;DHT22;67165;50.256;10.978;2023-07-13T01:37:24;19.80;98.00
26575;DHT22;67165;50.256;10.978;2023-07-13T01:39:49;19.80;98.00
26575;DHT22;67165;50.256;10.978;2023-07-13T01:42:15;19.80;98.00
26575;DHT22;67165;50.256;10.978;2023-07-13T01:44:41;19.80;98.00
26575;DHT22;67165;50.256;10.978;2023-07-13T01:47:07;19.80;98.00
26575;DHT22;67165;50.256;10.978;2023-07-13T01:49:32;19.80;98.00
26575;DHT22;67165;50.256;10.978;2023-07-13T01:51:58;19.80;98.00
26575;DHT22;67165;50.256;10.978;2023-07-13T01:54:24;19.70;98.00
26575;DHT22;67165;50.256;10.978;2023-07-13T01:56:49;19.70;98.00
26575;DHT22;67165;50.256;10.978;2023-07-13T01:59:15;19.70;98.00
26575;DHT22;67165;50.256;10.978;2023-07-13T02:01:41;19.70;98.00
26575;DHT22;67165;50.256;10.978;2023-07-13T02:04:06;19.70;98.00
26575;DHT22;67165;50.256;10.978;2023-07-13T02:06:32;19.70;98.00
26575;DHT22;67165;50.256;10.978;2023-07-13T02:08:58;19.70;98.00
26575;DHT22;67165;50.256;10.978;2023-07-13T02:11:24;19.70;98.00
26575;DHT22;67165;50.256;10.978;2023-07-13T02:13:51;19.70;98.00
26575;DHT22;67165;50.256;10.978;2023-07-13T02:16:16;19.70;98.00
26575;DHT22;67165;50.256;10.978;2023-07-13T02:18:42;19.70;98.00
26575;DHT22;67165;50.256;10.978;2023-07-13T02:21:07;19.70;98.00
26575;DHT22;67165;50.256;10.978;2023-07-13T02:23:33;19.70;98.00
26575;DHT22;67165;50.256;10.978;2023-07-13T02:26:00;19.60;98.00
26575;DHT22;67165;50.256;10.978;2023-07-13T02:28:28;19.60;98.00
26575;DHT22;67165;50.256;10.978;2023-07-13T02:30:53;19.60;98.00
26575;DHT22;67165;50.256;10.978;2023-07-13T02:33:19;19.50;98.00
26575;DHT22;67165;50.256;10.978;2023-07-13T02:35:45;19.50;98.00
26575;DHT22;67165;50.256;10.978;2023-07-13T02:38:10;19.40;98.00
26575;DHT22;67165;50.256;10.978;2023-07-13T02:40:36;19.30;98.00
26575;DHT22;67165;50.256;10.978;2023-07-13T02:43:03;19.20;98.00
26575;DHT22;67165;50.256;10.978;2023-07-13T02:45:28;19.10;98.00
26575;DHT22;67165;50.256;10.978;2023-07-13T02:47:54;19.10;98.00
26575;DHT22;67165;50.256;10.978;2023-07-13T02:50:20;19.00;98.00
26575;DHT22;67165;50.256;10.978;2023-07-13T02:52:45;19.00;98.00
26575;DHT22;67165;50.256;10.978;2023-07-13T02:55:11;18.90;98.00
26575;DHT22;67165;50.256;10.978;2023-07-13T02:57:37;18.90;98.00
26575;DHT22;67165;50.256;10.978;2023-07-13T03:00:04;18.90;98.00
26575;DHT22;67165;50.256;10.978;2023-07-13T03:02:34;18.80;98.00
26575;DHT22;67165;50.256;10.978;2023-07-13T03:05:00;18.70;98.00
26575;DHT22;67165;50.256;10.978;2023-07-13T03:07:26;18.70;98.00
26575;DHT22;67165;50.256;10.978;2023-07-13T03:09:58;18.60;98.00
26575;DHT22;67165;50.256;10.978;2023-07-13T03:12:24;18.60;98.00
26575;DHT22;67165;50.256;10.978;2023-07-13T03:14:50;18.60;98.00
26575;DHT22;67165;50.256;10.978;2023-07-13T03:17:19;18.60;98.00
26575;DHT22;67165;50.256;10.978;2023-07-13T03:19:44;18.50;98.00
26575;DHT22;67165;50.256;10.978;2023-07-13T03:22:10;18.50;98.00
26575;DHT22;67165;50.256;10.978;2023-07-13T03:24:36;18.50;98.00
26575;DHT22;67165;50.256;10.978;2023-07-13T03:27:04;18.40;98.00
26575;DHT22;67165;50.256;10.978;2023-07-13T03:29:30;18.30;98.00
26575;DHT22;67165;50.256;10.978;2023-07-13T03:31:56;18.30;98.00
26575;DHT22;67165;50.256;10.978;2023-07-13T03:34:21;18.30;98.00
26575;DHT22;67165;50.256;10.978;2023-07-13T03:36:47;18.20;98.00
26575;DHT22;67165;50.256;10.978;2023-07-13T03:39:12;18.20;98.00
26575;DHT22;67165;50.256;10.978;2023-07-13T03:41:38;18.10;98.00
26575;DHT22;67165;50.256;10.978;2023-07-13T03:44:04;18.00;98.00
26575;DHT22;67165;50.256;10.978;2023-07-13T03:46:30;18.00;98.00
26575;DHT22;67165;50.256;10.978;2023-07-13T03:48:56;18.00;98.00
26575;DHT22;67165;50.256;10.978;2023-07-13T03:51:22;18.00;98.00
26575;DHT22;67165;50.256;10.978;2023-07-13T03:53:48;17.90;98.00
26575;DHT22;67165;50.256;10.978;2023-07-13T03:56:15;18.00;98.00
26575;DHT22;67165;50.256;10.978;2023-07-13T03:58:42;18.00;98.00
26575;DHT22;67165;50.256;10.978;2023-07-13T04:01:09;18.00;98.00
26575;DHT22;67165;50.256;10.978;2023-07-13T04:03:36;18.00;98.00
26575;DHT22;67165;50.256;10.978;2023-07-13T04:06:04;18.00;98.00
26575;DHT22;67165;50.256;10.978;2023-07-13T04:08:32;18.00;98.00
26575;DHT22;67165;50.256;10.978;2023-07-13T04:10:58;18.00;98.00
26575;DHT22;67165;50.256;10.978;2023-07-13T04:13:24;18.10;98.00
26575;DHT22;67165;50.256;10.978;2023-07-13T04:15:51;18.10;98.00
26575;DHT22;67165;50.256;10.978;2023-07-13T04:18:17;18.00;98.00
26575;DHT22;67165;50.256;10.978;2023-07-13T04:20:43;18.00;98.00
26575;DHT22;67165;50.256;10.978;2023-07-13T04:23:09;18.00;98.00
26575;DHT22;67165;50.256;10.978;2023-07-13T04:25:34;18.10;98.00
26575;DHT22;67165;50.256;10.978;2023-07-13T04:28:00;18.20;98.00
26575;DHT22;67165;50.256;10.978;2023-07-13T04:30:26;18.20;98.00
26575;DHT22;67165;50.256;10.978;2023-07-13T04:32:52;18.20;98.00
26575;DHT22;67165;50.256;10.978;2023-07-13T04:35:21;18.20;98.00
26575;DHT22;67165;50.256;10.978;2023-07-13T04:37:50;18.20;98.00
26575;DHT22;67165;50.256;10.978;2023-07-13T04:40:19;18.20;98.00
26575;DHT22;67165;50.256;10.978;2023-07-13T04:42:46;18.20;98.00
26575;DHT22;67165;50.256;10.978;2023-07-13T04:45:13;18.30;98.00
26575;DHT22;67165;50.256;10.978;2023-07-13T04:47:39;18.30;98.00
26575;DHT22;67165;50.256;10.978;2023-07-13T04:50:06;18.30;98.00
26575;DHT22;67165;50.256;10.978;2023-07-13T04:52:32;18.30;98.00
26575;DHT22;67165;50.256;10.978;2023-07-13T04:54:59;18.30;98.00
26575;DHT22;67165;50.256;10.978;2023-07-13T04:57:26;18.40;98.00
26575;DHT22;67165;50.256;10.978;2023-07-13T04:59:52;18.40;98.00
26575;DHT22;67165;50.256;10.978;2023-07-13T05:02:18;18.50;98.00
26575;DHT22;67165;50.256;10.978;2023-07-13T05:04:47;18.60;98.00
26575;DHT22;67165;50.256;10.978;2023-07-13T05:07:13;18.70;98.00
26575;DHT22;67165;50.256;10.978;2023-07-13T05:09:39;18.90;98.00
26575;DHT22;67165;50.256;10.978;2023-07-13T05:12:07;19.20;98.00
26575;DHT22;67165;50.256;10.978;2023-07-13T05:14:32;19.30;98.00
26575;DHT22;67165;50.256;10.978;2023-07-13T05:16:58;19.50;98.00
26575;DHT22;67165;50.256;10.978;2023-07-13T05:19:24;19.60;98.00
26575;DHT22;67165;50.256;10.978;2023-07-13T05:21:49;19.80;98.00
26575;DHT22;67165;50.256;10.978;2023-07-13T05:24:15;20.10;98.00
26575;DHT22;67165;50.256;10.978;2023-07-13T05:26:41;20.30;98.00
26575;DHT22;67165;50.256;10.978;2023-07-13T05:29:06;20.90;98.00
26575;DHT22;67165;50.256;10.978;2023-07-13T05:31:32;21.40;98.00
26575;DHT22;67165;50.256;10.978;2023-07-13T05:33:57;21.50;98.00
26575;DHT22;67165;50.256;10.978;2023-07-13T05:36:23;21.60;98.00
26575;DHT22;67165;50.256;10.978;2023-07-13T05:38:49;21.50;98.00
26575;DHT22;67165;50.256;10.978;2023-07-13T05:41:14;21.30;98.00
26575;DHT22;67165;50.256;10.978;2023-07-13T05:43:40;21.20;98.00
26575;DHT22;67165;50.256;10.978;2023-07-13T05:46:07;21.20;98.00
26575;DHT22;67165;50.256;10.978;2023-07-13T05:48:33;21.10;98.00
26575;DHT22;67165;50.256;10.978;2023-07-13T05:50:58;21.00;98.00
26575;DHT22;67165;50.256;10.978;2023-07-13T05:53:24;20.90;98.00
26575;DHT22;67165;50.256;10.978;2023-07-13T05:55:49;20.80;98.00
26575;DHT22;67165;50.256;10.978;2023-07-13T05:58:17;20.80;98.00
26575;DHT22;67165;50.256;10.978;2023-07-13T06:00:43;21.10;98.00
26575;DHT22;67165;50.256;10.978;2023-07-13T06:03:09;21.30;98.00
26575;DHT22;67165;50.256;10.978;2023-07-13T06:05:35;21.40;98.00
26575;DHT22;67165;50.256;10.978;2023-07-13T06:08:02;21.40;98.00
26575;DHT22;67165;50.256;10.978;2023-07-13T06:10:28;21.30;98.00
26575;DHT22;67165;50.256;10.978;2023-07-13T06:12:54;21.20;98.00
26575;DHT22;67165;50.256;10.978;2023-07-13T06:15:19;21.00;98.00
26575;DHT22;67165;50.256;10.978;2023-07-13T06:17:45;20.90;98.00
26575;DHT22;67165;50.256;10.978;2023-07-13T06:20:11;20.90;98.00
26575;DHT22;67165;50.256;10.978;2023-07-13T06:22:36;21.20;98.00
26575;DHT22;67165;50.256;10.978;2023-07-13T06:25:02;21.70;98.00
26575;DHT22;67165;50.256;10.978;2023-07-13T06:27:28;22.10;98.00
26575;DHT22;67165;50.256;10.978;2023-07-13T06:29:54;22.70;98.00
26575;DHT22;67165;50.256;10.978;2023-07-13T06:32:20;23.10;98.00
26575;DHT22;67165;50.256;10.978;2023-07-13T06:34:46;23.50;95.10
26575;DHT22;67165;50.256;10.978;2023-07-13T06:37:11;23.90;94.90
26575;DHT22;67165;50.256;10.978;2023-07-13T06:39:37;24.00;95.30
26575;DHT22;67165;50.256;10.978;2023-07-13T06:42:03;24.10;94.40
26575;DHT22;67165;50.256;10.978;2023-07-13T06:44:29;24.40;94.80
26575;DHT22;67165;50.256;10.978;2023-07-13T06:46:54;24.40;94.00
26575;DHT22;67165;50.256;10.978;2023-07-13T06:49:20;24.40;94.10
26575;DHT22;67165;50.256;10.978;2023-07-13T06:51:46;24.40;94.00
26575;DHT22;67165;50.256;10.978;2023-07-13T06:54:11;24.00;93.70
26575;DHT22;67165;50.256;10.978;2023-07-13T06:56:37;23.90;94.00
26575;DHT22;67165;50.256;10.978;2023-07-13T06:59:02;23.80;95.00
26575;DHT22;67165;50.256;10.978;2023-07-13T07:01:28;23.70;95.20
26575;DHT22;67165;50.256;10.978;2023-07-13T07:03:54;23.90;94.40
26575;DHT22;67165;50.256;10.978;2023-07-13T07:06:21;24.10;94.40
26575;DHT22;67165;50.256;10.978;2023-07-13T07:08:49;24.30;93.70
26575;DHT22;67165;50.256;10.978;2023-07-13T07:11:22;24.30;93.70
26575;DHT22;67165;50.256;10.978;2023-07-13T07:13:48;24.40;93.70
26575;DHT22;67165;50.256;10.978;2023-07-13T07:16:14;24.20;92.90
26575;DHT22;67165;50.256;10.978;2023-07-13T07:18:40;23.90;94.00
26575;DHT22;67165;50.256;10.978;2023-07-13T07:21:05;23.70;96.70
26575;DHT22;67165;50.256;10.978;2023-07-13T07:23:31;23.50;96.70
26575;DHT22;67165;50.256;10.978;2023-07-13T07:25:57;23.90;95.60
26575;DHT22;67165;50.256;10.978;2023-07-13T07:28:23;24.30;94.00
26575;DHT22;67165;50.256;10.978;2023-07-13T07:30:53;24.40;93.90
26575;DHT22;67165;50.256;10.978;2023-07-13T07:33:19;24.60;93.30
26575;DHT22;67165;50.256;10.978;2023-07-13T07:35:45;24.40;93.90
26575;DHT22;67165;50.256;10.978;2023-07-13T07:38:10;24.30;94.30
26575;DHT22;67165;50.256;10.978;2023-07-13T07:40:38;24.50;93.60
26575;DHT22;67165;50.256;10.978;2023-07-13T07:43:04;24.90;91.30
26575;DHT22;67165;50.256;10.978;2023-07-13T07:45:30;25.10;92.20
26575;DHT22;67165;50.256;10.978;2023-07-13T07:47:56;25.20;91.50
26575;DHT22;67165;50.256;10.978;2023-07-13T07:50:25;25.50;91.00
26575;DHT22;67165;50.256;10.978;2023-07-13T07:52:51;25.80;91.40
26575;DHT22;67165;50.256;10.978;2023-07-13T07:55:16;26.10;90.10
26575;DHT22;67165;50.256;10.978;2023-07-13T07:57:42;26.40;89.60
26575;DHT22;67165;50.256;10.978;2023-07-13T08:00:08;26.60;88.20
26575;DHT22;67165;50.256;10.978;2023-07-13T08:02:34;26.60;83.80
26575;DHT22;67165;50.256;10.978;2023-07-13T08:04:59;26.80;83.60
26575;DHT22;67165;50.256;10.978;2023-07-13T08:07:25;27.00;81.20
26575;DHT22;67165;50.256;10.978;2023-07-13T08:09:54;27.20;81.90
26575;DHT22;67165;50.256;10.978;2023-07-13T08:12:19;27.60;82.50
26575;DHT22;67165;50.256;10.978;2023-07-13T08:14:49;27.60;81.00
26575;DHT22;67165;50.256;10.978;2023-07-13T08:17:21;27.80;80.80
26575;DHT22;67165;50.256;10.978;2023-07-13T08:19:47;27.90;80.60
26575;DHT22;67165;50.256;10.978;2023-07-13T08:22:12;28.00;80.20
26575;DHT22;67165;50.256;10.978;2023-07-13T08:24:38;27.90;81.00
26575;DHT22;67165;50.256;10.978;2023-07-13T08:27:04;27.80;81.20
26575;DHT22;67165;50.256;10.978;2023-07-13T08:29:29;27.60;80.70
26575;DHT22;67165;50.256;10.978;2023-07-13T08:31:57;27.80;80.10
26575;DHT22;67165;50.256;10.978;2023-07-13T08:34:23;28.20;79.20
26575;DHT22;67165;50.256;10.978;2023-07-13T08:36:49;28.30;78.80
26575;DHT22;67165;50.256;10.978;2023-07-13T08:39:15;28.10;79.10
26575;DHT22;67165;50.256;10.978;2023-07-13T08:41:40;28.10;78.90
26575;DHT22;67165;50.256;10.978;2023-07-13T08:44:16;27.90;77.90
26575;DHT22;67165;50.256;10.978;2023-07-13T08:46:46;27.70;76.00
26575;DHT22;67165;50.256;10.978;2023-07-13T08:49:16;27.00;77.40
26575;DHT22;67165;50.256;10.978;2023-07-13T08:51:58;26.40;77.20
26575;DHT22;67165;50.256;10.978;2023-07-13T08:54:30;26.30;77.00
26575;DHT22;67165;50.256;10.978;2023-07-13T08:56:58;26.50;75.20
26575;DHT22;67165;50.256;10.978;2023-07-13T08:59:27;26.30;74.80
26575;DHT22;67165;50.256;10.978;2023-07-13T09:02:38;25.90;74.70
26575;DHT22;67165;50.256;10.978;2023-07-13T09:04:48;26.00;75.30
26575;DHT22;67165;50.256;10.978;2023-07-13T09:10:19;26.40;75.00
26575;DHT22;67165;50.256;10.978;2023-07-13T09:17:51;26.80;72.30
26575;DHT22;67165;50.256;10.978;2023-07-13T09:20:34;26.70;72.30
26575;DHT22;67165;50.256;10.978;2023-07-13T09:23:03;26.60;73.10
26575;DHT22;67165;50.256;10.978;2023-07-13T09:25:33;26.70;72.60
26575;DHT22;67165;50.256;10.978;2023-07-13T09:28:20;26.80;72.90
26575;DHT22;67165;50.256;10.978;2023-07-13T09:33:23;26.90;72.80
26575;DHT22;67165;50.256;10.978;2023-07-13T09:35:48;26.80;73.70
26575;DHT22;67165;50.256;10.978;2023-07-13T09:38:17;27.10;72.50
26575;DHT22;67165;50.256;10.978;2023-07-13T09:41:45;27.20;73.00
26575;DHT22;67165;50.256;10.978;2023-07-13T09:44:13;27.20;72.70
26575;DHT22;67165;50.256;10.978;2023-07-13T09:46:42;27.20;73.20
26575;DHT22;67165;50.256;10.978;2023-07-13T09:49:10;26.90;72.90
26575;DHT22;67165;50.256;10.978;2023-07-13T09:51:37;26.80;73.30
26575;DHT22;67165;50.256;10.978;2023-07-13T09:54:03;26.80;71.70
26575;DHT22;67165;50.256;10.978;2023-07-13T09:56:29;26.60;72.10
26575;DHT22;67165;50.256;10.978;2023-07-13T09:58:56;26.70;72.60
26575;DHT22;67165;50.256;10.978;2023-07-13T10:01:37;26.70;72.00
26575;DHT22;67165;50.256;10.978;2023-07-13T10:04:14;26.80;73.20
26575;DHT22;67165;50.256;10.978;2023-07-13T10:06:42;26.90;72.40
26575;DHT22;67165;50.256;10.978;2023-07-13T10:09:08;26.80;72.50
26575;DHT22;67165;50.256;10.978;2023-07-13T10:11:35;26.90;73.80
26575;DHT22;67165;50.256;10.978;2023-07-13T10:16:35;26.70;74.00
26575;DHT22;67165;50.256;10.978;2023-07-13T10:19:21;26.80;74.40
26575;DHT22;67165;50.256;10.978;2023-07-13T10:22:01;26.80;73.90
26575;DHT22;67165;50.256;10.978;2023-07-13T10:24:34;27.00;74.00
26575;DHT22;67165;50.256;10.978;2023-07-13T10:27:13;27.00;73.20
26575;DHT22;67165;50.256;10.978;2023-07-13T10:30:22;27.10;73.80
26575;DHT22;67165;50.256;10.978;2023-07-13T10:32:49;27.00;73.60
26575;DHT22;67165;50.256;10.978;2023-07-13T10:35:18;27.10;74.00
26575;DHT22;67165;50.256;10.978;2023-07-13T10:37:51;26.90;73.10
26575;DHT22;67165;50.256;10.978;2023-07-13T10:41:11;26.80;73.40
26575;DHT22;67165;50.256;10.978;2023-07-13T10:43:56;26.70;73.30
26575;DHT22;67165;50.256;10.978;2023-07-13T10:46:25;26.60;74.40
26575;DHT22;67165;50.256;10.978;2023-07-13T10:48:58;26.80;74.60
26575;DHT22;67165;50.256;10.978;2023-07-13T10:51:26;26.90;74.00
26575;DHT22;67165;50.256;10.978;2023-07-13T10:54:26;27.10;74.20
26575;DHT22;67165;50.256;10.978;2023-07-13T10:57:14;27.20;74.70
26575;DHT22;67165;50.256;10.978;2023-07-13T10:59:42;27.20;73.40
26575;DHT22;67165;50.256;10.978;2023-07-13T11:02:24;27.20;72.60
26575;DHT22;67165;50.256;10.978;2023-07-13T11:04:53;27.30;72.20
26575;DHT22;67165;50.256;10.978;2023-07-13T11:09:52;27.20;73.50
26575;DHT22;67165;50.256;10.978;2023-07-13T11:17:32;27.40;72.80
26575;DHT22;67165;50.256;10.978;2023-07-13T11:25:36;27.10;71.90
26575;DHT22;67165;50.256;10.978;2023-07-13T11:30:47;27.20;73.40
26575;DHT22;67165;50.256;10.978;2023-07-13T11:36:00;27.50;73.40
26575;DHT22;67165;50.256;10.978;2023-07-13T11:38:38;27.50;73.50
26575;DHT22;67165;50.256;10.978;2023-07-13T11:41:18;27.50;71.40
26575;DHT22;67165;50.256;10.978;2023-07-13T11:43:45;27.60;72.20
26575;DHT22;67165;50.256;10.978;2023-07-13T11:46:15;27.70;72.00
26575;DHT22;67165;50.256;10.978;2023-07-13T11:48:42;27.80;71.70
26575;DHT22;67165;50.256;10.978;2023-07-13T11:51:19;27.80;72.20
26575;DHT22;67165;50.256;10.978;2023-07-13T11:53:48;27.80;72.80
26575;DHT22;67165;50.256;10.978;2023-07-13T11:56:14;28.00;71.80
26575;DHT22;67165;50.256;10.978;2023-07-13T11:58:40;28.10;71.10
26575;DHT22;67165;50.256;10.978;2023-07-13T12:01:10;27.90;72.00
26575;DHT22;67165;50.256;10.978;2023-07-13T12:03:41;27.70;72.00
26575;DHT22;67165;50.256;10.978;2023-07-13T12:08:47;27.70;72.00
26575;DHT22;67165;50.256;10.978;2023-07-13T12:11:17;27.50;72.60
26575;DHT22;67165;50.256;10.978;2023-07-13T12:13:44;27.30;72.90
26575;DHT22;67165;50.256;10.978;2023-07-13T12:16:26;27.20;72.00
26575;DHT22;67165;50.256;10.978;2023-07-13T12:18:53;27.20;72.80
26575;DHT22;67165;50.256;10.978;2023-07-13T12:21:24;27.40;72.70
26575;DHT22;67165;50.256;10.978;2023-07-13T12:23:51;27.50;72.40
26575;DHT22;67165;50.256;10.978;2023-07-13T12:26:18;27.50;72.90
26575;DHT22;67165;50.256;10.978;2023-07-13T12:28:51;27.60;72.00
26575;DHT22;67165;50.256;10.978;2023-07-13T12:31:41;27.60;71.60
26575;DHT22;67165;50.256;10.978;2023-07-13T12:34:11;27.70;72.00
26575;DHT22;67165;50.256;10.978;2023-07-13T12:36:45;27.60;73.40
26575;DHT22;67165;50.256;10.978;2023-07-13T12:41:53;27.00;74.00
26575;DHT22;67165;50.256;10.978;2023-07-13T12:44:31;27.10;74.20
26575;DHT22;67165;50.256;10.978;2023-07-13T12:47:11;27.00;74.30
26575;DHT22;67165;50.256;10.978;2023-07-13T12:49:41;26.70;73.90
26575;DHT22;67165;50.256;10.978;2023-07-13T12:52:16;26.70;73.80
26575;DHT22;67165;50.256;10.978;2023-07-13T12:54:42;26.60;75.10
26575;DHT22;67165;50.256;10.978;2023-07-13T12:57:17;26.60;74.20
26575;DHT22;67165;50.256;10.978;2023-07-13T12:59:43;26.60;74.90
26575;DHT22;67165;50.256;10.978;2023-07-13T13:02:29;26.50;75.60
26575;DHT22;67165;50.256;10.978;2023-07-13T13:04:56;26.50;73.70
26575;DHT22;67165;50.256;10.978;2023-07-13T13:07:22;26.50;73.70
26575;DHT22;67165;50.256;10.978;2023-07-13T13:09:48;26.50;75.40
26575;DHT22;67165;50.256;10.978;2023-07-13T13:12:14;26.70;75.00
26575;DHT22;67165;50.256;10.978;2023-07-13T13:14:40;26.90;75.00
26575;DHT22;67165;50.256;10.978;2023-07-13T13:17:20;27.10;73.70
26575;DHT22;67165;50.256;10.978;2023-07-13T13:19:47;27.00;74.50
26575;DHT22;67165;50.256;10.978;2023-07-13T13:22:13;26.80;75.20
26575;DHT22;67165;50.256;10.978;2023-07-13T13:24:39;26.80;75.20
26575;DHT22;67165;50.256;10.978;2023-07-13T13:27:08;26.70;75.70
26575;DHT22;67165;50.256;10.978;2023-07-13T13:29:39;26.70;75.90
26575;DHT22;67165;50.256;10.978;2023-07-13T13:32:09;26.60;75.30
26575;DHT22;67165;50.256;10.978;2023-07-13T13:34:35;26.80;76.10
26575;DHT22;67165;50.256;10.978;2023-07-13T13:37:00;27.00;75.80
26575;DHT22;67165;50.256;10.978;2023-07-13T13:39:36;27.10;75.50
26575;DHT22;67165;50.256;10.978;2023-07-13T13:42:03;27.30;74.70
26575;DHT22;67165;50.256;10.978;2023-07-13T13:44:28;27.30;73.20
26575;DHT22;67165;50.256;10.978;2023-07-13T13:46:55;27.00;72.80
26575;DHT22;67165;50.256;10.978;2023-07-13T13:49:26;26.90;73.70
26575;DHT22;67165;50.256;10.978;2023-07-13T13:51:53;27.00;74.50
26575;DHT22;67165;50.256;10.978;2023-07-13T13:54:20;26.90;74.20
26575;DHT22;67165;50.256;10.978;2023-07-13T13:56:49;26.80;73.30
26575;DHT22;67165;50.256;10.978;2023-07-13T13:59:15;26.50;73.80
26575;DHT22;67165;50.256;10.978;2023-07-13T14:01:43;26.40;74.60
26575;DHT22;67165;50.256;10.978;2023-07-13T14:04:19;26.50;75.00
26575;DHT22;67165;50.256;10.978;2023-07-13T14:06:45;26.70;75.40
26575;DHT22;67165;50.256;10.978;2023-07-13T14:09:12;26.60;75.60
26575;DHT22;67165;50.256;10.978;2023-07-13T14:11:39;26.50;75.10
26575;DHT22;67165;50.256;10.978;2023-07-13T14:14:14;26.50;76.10
26575;DHT22;67165;50.256;10.978;2023-07-13T14:16:41;26.40;75.10
26575;DHT22;67165;50.256;10.978;2023-07-13T14:19:13;26.20;75.60
26575;DHT22;67165;50.256;10.978;2023-07-13T14:21:39;26.10;75.60
26575;DHT22;67165;50.256;10.978;2023-07-13T14:24:05;26.10;76.50
26575;DHT22;67165;50.256;10.978;2023-07-13T14:26:35;26.20;76.70
26575;DHT22;67165;50.256;10.978;2023-07-13T14:29:01;26.20;76.20
26575;DHT22;67165;50.256;10.978;2023-07-13T14:31:28;26.30;77.00
26575;DHT22;67165;50.256;10.978;2023-07-13T14:33:54;26.30;77.20
26575;DHT22;67165;50.256;10.978;2023-07-13T14:36:33;26.30;76.40
26575;DHT22;67165;50.256;10.978;2023-07-13T14:39:09;26.30;77.10
26575;DHT22;67165;50.256;10.978;2023-07-13T14:41:36;26.30;76.40
26575;DHT22;67165;50.256;10.978;2023-07-13T14:44:12;26.40;76.50
26575;DHT22;67165;50.256;10.978;2023-07-13T14:46:38;26.50;76.10
26575;DHT22;67165;50.256;10.978;2023-07-13T14:49:07;26.50;75.80
26575;DHT22;67165;50.256;10.978;2023-07-13T14:51:38;26.40;75.80
26575;DHT22;67165;50.256;10.978;2023-07-13T14:54:05;26.20;76.70
26575;DHT22;67165;50.256;10.978;2023-07-13T14:56:33;26.30;76.50
26575;DHT22;67165;50.256;10.978;2023-07-13T14:58:58;26.40;76.40
26575;DHT22;67165;50.256;10.978;2023-07-13T15:01:24;26.60;77.00
26575;DHT22;67165;50.256;10.978;2023-07-13T15:03:51;26.70;76.70
26575;DHT22;67165;50.256;10.978;2023-07-13T15:06:18;26.60;77.00
26575;DHT22;67165;50.256;10.978;2023-07-13T15:08:45;26.70;76.60
26575;DHT22;67165;50.256;10.978;2023-07-13T15:11:11;26.60;76.50
26575;DHT22;67165;50.256;10.978;2023-07-13T15:13:38;26.50;76.00
26575;DHT22;67165;50.256;10.978;2023-07-13T15:16:05;26.50;74.90
26575;DHT22;67165;50.256;10.978;2023-07-13T15:18:35;26.50;75.30
26575;DHT22;67165;50.256;10.978;2023-07-13T15:21:04;26.40;74.60
26575;DHT22;67165;50.256;10.978;2023-07-13T15:23:32;26.50;75.40
26575;DHT22;67165;50.256;10.978;2023-07-13T15:25:58;26.30;76.40
26575;DHT22;67165;50.256;10.978;2023-07-13T15:28:24;26.10;75.60
26575;DHT22;67165;50.256;10.978;2023-07-13T15:30:49;26.00;75.70
26575;DHT22;67165;50.256;10.978;2023-07-13T15:33:26;25.90;77.00
26575;DHT22;67165;50.256;10.978;2023-07-13T15:35:52;26.00;77.30
26575;DHT22;67165;50.256;10.978;2023-07-13T15:38:25;26.00;76.30
26575;DHT22;67165;50.256;10.978;2023-07-13T15:40:52;26.00;76.10
26575;DHT22;67165;50.256;10.978;2023-07-13T15:43:18;26.10;76.30
26575;DHT22;67165;50.256;10.978;2023-07-13T15:45:45;26.10;76.80
26575;DHT22;67165;50.256;10.978;2023-07-13T15:48:23;26.20;77.20
26575;DHT22;67165;50.256;10.978;2023-07-13T15:50:51;26.30;77.80
26575;DHT22;67165;50.256;10.978;2023-07-13T15:53:43;26.30;76.80
26575;DHT22;67165;50.256;10.978;2023-07-13T15:56:18;26.10;76.60
26575;DHT22;67165;50.256;10.978;2023-07-13T15:58:44;25.90;75.80
26575;DHT22;67165;50.256;10.978;2023-07-13T16:01:10;25.80;77.00
26575;DHT22;67165;50.256;10.978;2023-07-13T16:03:36;25.80;76.50